Marysville, Ohio
Current Conditions -  °F | °C
As of 3:14 PM on Thursday 29 Jan 2015 (Local Time) from KMRT Reporting Station
Overcast Overcast  
Wind Chill: 27°   Ceiling: 600
Heat Index: 37°   Visibility: 1.5mi
Dew Point: 34°   Wind: 20mph
Humidity: 87%   Direction: 280°W
Pressure: 29.79"   Gusts: 25mph
Location:  40.24°N, 83.37°W
Report Text: KMRT 292014Z AUTO 28017G22KT 1 1/2SM BKN006 OVC010 03/01 A2979 RMK AO2 T00280009
Loading
Personal Weather Stations






























Interactive Weather Map New forecast layout! Learn more

10-Day Weather Forecast

Advertisements
Track Severe Weather on mobile